Time;durP1;ratioP1;P1;durP2;ratioP2;P2;SDS_P1;SDS_P2;PMS_P1;PMS_P2;Temp;Humidity;BMP_temperature;BMP_pressure;BME280_temperature;BME280_humidity;BME280_pressure;Samples;Min_cycle;Max_cycle;Signal;HPM_P1;HPM_P2
2023/07/08 00:00:24;;;;;;;3.67;2.47;;;;;;;;;;6206979;23;20051;-89
2023/07/08 00:02:50;;;;;;;3.20;2.67;;;;;;;;;;6206989;23;20020;-86
2023/07/08 00:05:17;;;;;;;3.75;2.65;;;;;;;;;;6207030;23;20079;-90
2023/07/08 00:07:44;;;;;;;3.83;2.22;;;;;;;;;;6209102;23;20330;-88
2023/07/08 00:10:28;;;;;;;3.80;2.65;;;;;;;;;;6208429;23;20012;-89
2023/07/08 00:12:56;;;;;;;3.72;2.40;;;;;;;;;;6208339;23;20091;-88
2023/07/08 00:15:23;;;;;;;8.75;2.50;;;;;;;;;;6206504;23;20031;-89
2023/07/08 00:17:49;;;;;;;3.38;2.90;;;;;;;;;;6208002;23;20593;-89
2023/07/08 00:20:17;;;;;;;2.97;2.55;;;;;;;;;;6205655;23;20048;-90
2023/07/08 00:22:46;;;;;;;3.25;2.45;;;;;;;;;;6208583;23;20020;-89
2023/07/08 00:25:13;;;;;;;4.30;2.30;;;;;;;;;;6208652;23;20040;-90
2023/07/08 00:27:39;;;;;;;3.42;2.80;;;;;;;;;;6208440;23;20013;-85
2023/07/08 00:30:18;;;;;;;3.38;2.67;;;;;;;;;;6205453;23;20342;-88
2023/07/08 00:32:44;;;;;;;3.00;2.45;;;;;;;;;;6180771;23;20028;-88
2023/07/08 00:35:10;;;;;;;3.08;2.13;;;;;;;;;;6207573;23;20370;-89
2023/07/08 00:37:36;;;;;;;3.95;2.80;;;;;;;;;;6208685;23;20067;-89
2023/07/08 00:40:12;;;;;;;3.95;2.72;;;;;;;;;;6207766;23;20043;-88
2023/07/08 00:42:38;;;;;;;4.88;2.70;;;;;;;;;;6207913;23;20090;-89
2023/07/08 00:45:11;;;;;;;3.63;2.70;;;;;;;;;;6204982;23;20071;-88
2023/07/08 00:47:37;;;;;;;3.22;2.38;;;;;;;;;;6206649;23;20035;-88
2023/07/08 00:50:05;;;;;;;3.90;2.90;;;;;;;;;;6207606;23;20043;-88
2023/07/08 00:52:31;;;;;;;3.78;2.53;;;;;;;;;;6207793;23;20017;-88
2023/07/08 00:54:59;;;;;;;4.00;2.80;;;;;;;;;;6207792;23;20012;-86
2023/07/08 00:57:29;;;;;;;4.68;2.45;;;;;;;;;;6208024;23;20024;-88
2023/07/08 01:00:11;;;;;;;3.17;2.80;;;;;;;;;;6206740;23;20016;-91
2023/07/08 01:02:42;;;;;;;5.45;2.58;;;;;;;;;;6208323;23;20020;-90
2023/07/08 01:05:08;;;;;;;;;;;;;;;;;;6208057;23;20074;-88
2023/07/08 01:07:35;;;;;;;3.55;2.42;;;;;;;;;;6206206;23;19912;-86
2023/07/08 01:10:06;;;;;;;5.00;2.65;;;;;;;;;;6207088;23;20040;-87
2023/07/08 01:12:35;;;;;;;4.53;2.70;;;;;;;;;;6213628;23;20028;-87
2023/07/08 01:15:02;;;;;;;5.00;3.10;;;;;;;;;;6227982;23;20012;-90
2023/07/08 01:17:32;;;;;;;3.00;2.30;;;;;;;;;;6229301;23;20012;-87
2023/07/08 01:19:58;;;;;;;4.68;2.80;;;;;;;;;;6226649;23;20013;-87
2023/07/08 01:22:24;;;;;;;5.20;2.67;;;;;;;;;;6220561;23;20028;-87
2023/07/08 01:24:50;;;;;;;3.70;2.35;;;;;;;;;;6217674;23;20032;-87
2023/07/08 01:27:18;;;;;;;4.10;2.83;;;;;;;;;;6215045;23;20012;-87
2023/07/08 01:29:44;;;;;;;5.25;2.85;;;;;;;;;;6215693;23;20092;-90
2023/07/08 01:32:13;;;;;;;5.22;3.00;;;;;;;;;;6207733;23;20083;-84
2023/07/08 01:34:40;;;;;;;3.15;2.85;;;;;;;;;;6208546;23;20008;-86
2023/07/08 01:37:06;;;;;;;4.35;3.00;;;;;;;;;;6206653;23;20016;-86
2023/07/08 01:39:33;;;;;;;3.50;2.58;;;;;;;;;;6209064;23;20023;-86
2023/07/08 01:41:59;;;;;;;4.43;3.08;;;;;;;;;;6208282;23;20012;-87
2023/07/08 01:44:30;;;;;;;6.88;2.88;;;;;;;;;;6206417;23;20104;-88
2023/07/08 01:47:09;;;;;;;4.13;2.95;;;;;;;;;;6205680;23;20021;-90
2023/07/08 01:49:36;;;;;;;3.53;2.47;;;;;;;;;;6208776;23;20024;-86
2023/07/08 01:52:03;;;;;;;4.53;2.88;;;;;;;;;;6206788;23;20044;-90
2023/07/08 01:54:29;;;;;;;3.22;2.67;;;;;;;;;;6209336;23;20012;-89
2023/07/08 01:56:56;;;;;;;5.28;3.22;;;;;;;;;;6207686;23;20143;-84
2023/07/08 01:59:22;;;;;;;4.68;2.50;;;;;;;;;;6207783;23;20012;-85
2023/07/08 02:01:54;;;;;;;3.95;2.90;;;;;;;;;;6210049;23;20422;-85
2023/07/08 02:04:20;;;;;;;3.25;2.33;;;;;;;;;;6209864;23;20016;-84
2023/07/08 02:06:51;;;;;;;4.28;2.97;;;;;;;;;;6210629;23;20055;-85
2023/07/08 02:09:17;;;;;;;3.58;3.08;;;;;;;;;;6209576;23;20019;-84
2023/07/08 02:11:43;;;;;;;5.45;3.00;;;;;;;;;;6209766;23;20116;-84
2023/07/08 02:14:09;;;;;;;4.72;3.03;;;;;;;;;;6207157;23;20043;-84
2023/07/08 02:16:35;;;;;;;4.10;2.70;;;;;;;;;;6210467;23;20023;-84
2023/07/08 02:19:01;;;;;;;3.88;3.30;;;;;;;;;;6208958;23;20032;-84
2023/07/08 02:21:30;;;;;;;4.32;3.08;;;;;;;;;;6209507;23;20330;-86
2023/07/08 02:23:57;;;;;;;4.72;3.30;;;;;;;;;;6209910;23;20029;-85
2023/07/08 02:26:23;;;;;;;3.47;3.03;;;;;;;;;;6210494;23;20024;-85
2023/07/08 02:28:49;;;;;;;4.85;3.10;;;;;;;;;;6207465;23;20430;-84
2023/07/08 02:31:15;;;;;;;4.57;2.92;;;;;;;;;;6209994;23;20020;-85
2023/07/08 02:33:41;;;;;;;4.95;3.25;;;;;;;;;;6208014;23;20807;-86
2023/07/08 02:36:07;;;;;;;5.47;3.22;;;;;;;;;;6208699;23;20461;-85
2023/07/08 02:38:34;;;;;;;4.25;3.20;;;;;;;;;;6206990;23;20017;-85
2023/07/08 02:41:00;;;;;;;3.92;3.40;;;;;;;;;;6209158;23;20048;-83
2023/07/08 02:43:26;;;;;;;3.08;2.72;;;;;;;;;;6207966;23;20016;-85
2023/07/08 02:45:52;;;;;;;5.00;2.75;;;;;;;;;;6207443;23;20009;-84
2023/07/08 02:48:19;;;;;;;4.80;3.40;;;;;;;;;;6206850;23;20426;-85
2023/07/08 02:50:45;;;;;;;5.10;3.10;;;;;;;;;;6207506;23;20106;-86
2023/07/08 02:53:11;;;;;;;5.22;3.40;;;;;;;;;;6182330;23;20016;-86
2023/07/08 02:55:38;;;;;;;6.03;2.60;;;;;;;;;;6207488;23;20873;-84
2023/07/08 02:58:04;;;;;;;5.30;3.10;;;;;;;;;;6207893;23;20016;-85
2023/07/08 03:00:30;;;;;;;7.63;3.30;;;;;;;;;;6208592;23;20431;-87
2023/07/08 03:02:56;;;;;;;5.32;3.28;;;;;;;;;;6207408;23;20013;-86
2023/07/08 03:05:22;;;;;;;5.00;3.00;;;;;;;;;;6207043;23;20016;-84
2023/07/08 03:07:48;;;;;;;3.88;3.10;;;;;;;;;;6209362;23;20066;-83
2023/07/08 03:10:14;;;;;;;4.68;3.33;;;;;;;;;;6208681;23;20012;-86
2023/07/08 03:12:40;;;;;;;3.80;3.25;;;;;;;;;;6206995;23;20012;-84
2023/07/08 03:15:07;;;;;;;8.95;3.33;;;;;;;;;;6208301;23;20048;-83
2023/07/08 03:17:33;;;;;;;4.38;2.75;;;;;;;;;;6209873;23;20338;-85
2023/07/08 03:19:59;;;;;;;3.92;3.13;;;;;;;;;;6207493;23;20016;-84
2023/07/08 03:22:25;;;;;;;3.22;2.92;;;;;;;;;;6208186;23;20058;-84
2023/07/08 03:24:51;;;;;;;4.32;3.33;;;;;;;;;;6207367;23;20453;-83
2023/07/08 03:27:17;;;;;;;4.85;3.30;;;;;;;;;;6205418;23;20063;-87
2023/07/08 03:29:43;;;;;;;3.97;3.15;;;;;;;;;;6208008;23;20017;-82
2023/07/08 03:32:10;;;;;;;3.67;2.97;;;;;;;;;;6208904;23;20076;-83
2023/07/08 03:34:37;;;;;;;5.25;3.75;;;;;;;;;;6209808;23;20008;-84
2023/07/08 03:37:03;;;;;;;3.65;3.22;;;;;;;;;;6207413;23;20039;-87
2023/07/08 03:39:31;;;;;;;5.45;3.30;;;;;;;;;;6211113;23;20017;-85
2023/07/08 03:41:57;;;;;;;5.88;3.53;;;;;;;;;;6209963;23;20059;-86
2023/07/08 03:44:23;;;;;;;3.78;3.38;;;;;;;;;;6208420;23;20020;-86
2023/07/08 03:46:50;;;;;;;6.43;3.90;;;;;;;;;;6207424;23;20015;-85
2023/07/08 03:49:21;;;;;;;5.35;3.40;;;;;;;;;;6209369;23;20040;-85
2023/07/08 03:51:48;;;;;;;4.50;3.90;;;;;;;;;;6208807;23;20084;-84
2023/07/08 03:54:14;;;;;;;4.60;3.05;;;;;;;;;;6206635;23;20049;-84
2023/07/08 03:56:40;;;;;;;4.82;3.30;;;;;;;;;;6207650;23;20047;-84
2023/07/08 03:59:07;;;;;;;3.97;3.35;;;;;;;;;;6208111;23;20012;-86
2023/07/08 04:01:33;;;;;;;3.78;3.28;;;;;;;;;;6209070;23;20056;-83
2023/07/08 04:03:59;;;;;;;8.00;3.35;;;;;;;;;;6209179;23;20327;-86
2023/07/08 04:06:26;;;;;;;8.27;3.90;;;;;;;;;;6209083;23;20275;-85
2023/07/08 04:08:52;;;;;;;5.07;2.85;;;;;;;;;;6206861;23;20035;-86
2023/07/08 04:11:20;;;;;;;3.30;2.97;;;;;;;;;;6208331;23;20023;-84
2023/07/08 04:13:46;;;;;;;5.03;3.50;;;;;;;;;;6205361;23;20016;-87
2023/07/08 04:16:20;;;;;;;4.25;3.60;;;;;;;;;;6205885;23;20095;-87
2023/07/08 04:18:47;;;;;;;5.65;3.15;;;;;;;;;;6209068;23;20082;-83
2023/07/08 04:21:13;;;;;;;4.60;3.72;;;;;;;;;;6207927;23;20813;-84
2023/07/08 04:23:39;;;;;;;4.13;3.00;;;;;;;;;;6208645;23;20442;-85
2023/07/08 04:26:05;;;;;;;4.25;3.25;;;;;;;;;;6207976;23;20028;-84
2023/07/08 04:28:31;;;;;;;4.90;3.70;;;;;;;;;;6209335;23;20336;-87
2023/07/08 04:30:57;;;;;;;4.55;3.33;;;;;;;;;;6207149;23;20039;-85
2023/07/08 04:33:23;;;;;;;5.20;3.65;;;;;;;;;;6208742;23;20385;-87
2023/07/08 04:35:49;;;;;;;4.78;3.47;;;;;;;;;;6206650;23;20020;-83
2023/07/08 04:38:17;;;;;;;4.53;3.88;;;;;;;;;;6207048;23;20048;-87
2023/07/08 04:40:43;;;;;;;3.53;2.97;;;;;;;;;;6208251;23;20449;-82
2023/07/08 04:43:12;;;;;;;4.57;3.67;;;;;;;;;;6204961;23;20021;-83
2023/07/08 04:45:39;;;;;;;4.93;3.17;;;;;;;;;;6207162;23;20095;-87
2023/07/08 04:48:12;;;;;;;3.92;3.28;;;;;;;;;;6208084;23;20013;-85
2023/07/08 04:50:40;;;;;;;4.53;3.42;;;;;;;;;;6207878;23;20020;-85
2023/07/08 04:53:06;;;;;;;4.53;3.28;;;;;;;;;;6207743;23;20071;-91
2023/07/08 04:55:32;;;;;;;3.67;3.25;;;;;;;;;;6208236;23;20020;-87
2023/07/08 04:57:58;;;;;;;4.55;3.22;;;;;;;;;;6205670;23;20051;-83
2023/07/08 05:00:24;;;;;;;4.75;3.17;;;;;;;;;;6207463;23;20024;-85
2023/07/08 05:02:50;;;;;;;4.72;3.15;;;;;;;;;;6210007;23;20013;-87
2023/07/08 05:05:17;;;;;;;5.72;3.25;;;;;;;;;;6207653;23;20032;-86
2023/07/08 05:07:43;;;;;;;3.60;3.13;;;;;;;;;;6207487;23;20012;-84
2023/07/08 05:10:09;;;;;;;6.15;3.17;;;;;;;;;;6206009;23;20013;-88
2023/07/08 05:12:36;;;;;;;4.18;3.30;;;;;;;;;;6207939;23;20063;-87
2023/07/08 05:15:02;;;;;;;3.47;2.60;;;;;;;;;;6208984;23;20381;-89
2023/07/08 05:17:28;;;;;;;4.75;3.08;;;;;;;;;;6209020;23;20024;-91
2023/07/08 05:19:54;;;;;;;3.40;3.10;;;;;;;;;;6210976;23;20020;-90
2023/07/08 05:22:25;;;;;;;3.65;2.75;;;;;;;;;;6212714;23;20013;-89
2023/07/08 05:24:52;;;;;;;3.28;2.97;;;;;;;;;;6209888;23;20118;-85
2023/07/08 05:27:18;;;;;;;5.78;3.90;;;;;;;;;;6208130;23;20009;-85
2023/07/08 05:29:46;;;;;;;5.30;3.53;;;;;;;;;;6206971;23;20280;-84
2023/07/08 05:32:12;;;;;;;4.07;3.78;;;;;;;;;;6205355;23;20012;-85
2023/07/08 05:34:38;;;;;;;5.03;2.90;;;;;;;;;;6207539;23;20021;-85
2023/07/08 05:37:04;;;;;;;3.72;3.10;;;;;;;;;;6206989;23;20135;-84
2023/07/08 05:39:31;;;;;;;3.47;2.65;;;;;;;;;;6207685;23;20013;-86
2023/07/08 05:41:57;;;;;;;3.33;2.90;;;;;;;;;;6206632;23;20013;-85
2023/07/08 05:44:23;;;;;;;3.78;2.78;;;;;;;;;;6204612;23;20094;-85
2023/07/08 05:46:49;;;;;;;3.97;2.85;;;;;;;;;;6207309;23;20028;-85
2023/07/08 05:49:16;;;;;;;4.47;3.28;;;;;;;;;;6204936;23;20008;-85
2023/07/08 05:51:42;;;;;;;3.63;2.72;;;;;;;;;;6207717;23;20334;-82
2023/07/08 05:54:08;;;;;;;3.47;2.97;;;;;;;;;;6204021;23;20079;-87
2023/07/08 05:56:34;;;;;;;3.17;2.78;;;;;;;;;;6208294;23;20370;-84
2023/07/08 05:59:00;;;;;;;6.35;2.58;;;;;;;;;;6207381;23;20017;-88
2023/07/08 06:01:26;;;;;;;5.07;3.53;;;;;;;;;;6181961;23;20087;-87
2023/07/08 06:03:52;;;;;;;4.15;2.88;;;;;;;;;;6205499;23;20024;-84
2023/07/08 06:06:18;;;;;;;3.10;2.60;;;;;;;;;;6207236;23;20013;-86
2023/07/08 06:08:44;;;;;;;2.80;2.60;;;;;;;;;;6206795;23;20020;-85
2023/07/08 06:11:10;;;;;;;3.15;2.85;;;;;;;;;;6206214;23;20012;-86
2023/07/08 06:13:36;;;;;;;3.80;2.88;;;;;;;;;;6205274;23;20016;-86
2023/07/08 06:16:02;;;;;;;3.63;2.67;;;;;;;;;;6206401;23;20075;-86
2023/07/08 06:18:28;;;;;;;3.17;2.40;;;;;;;;;;6207762;23;20019;-85
2023/07/08 06:20:55;;;;;;;3.38;2.72;;;;;;;;;;6207663;23;20242;-86
2023/07/08 06:23:21;;;;;;;3.70;2.08;;;;;;;;;;6206503;23;20338;-86
2023/07/08 06:25:47;;;;;;;2.85;2.55;;;;;;;;;;6204386;23;20343;-87
2023/07/08 06:28:13;;;;;;;2.58;2.17;;;;;;;;;;6205518;23;20020;-86
2023/07/08 06:30:39;;;;;;;3.70;3.03;;;;;;;;;;6208747;23;20104;-88
2023/07/08 06:33:05;;;;;;;4.13;3.00;;;;;;;;;;6206774;23;20020;-85
2023/07/08 06:35:32;;;;;;;3.85;2.88;;;;;;;;;;6207712;23;20012;-85
2023/07/08 06:37:57;;;;;;;3.88;3.08;;;;;;;;;;6208269;23;20477;-85
2023/07/08 06:40:23;;;;;;;2.78;2.53;;;;;;;;;;6206636;23;20420;-87
2023/07/08 06:42:50;;;;;;;4.75;2.80;;;;;;;;;;6181328;23;20043;-86
2023/07/08 06:45:16;;;;;;;3.17;2.85;;;;;;;;;;6206073;23;20042;-84
2023/07/08 06:47:42;;;;;;;4.28;3.03;;;;;;;;;;6209709;23;20020;-85
2023/07/08 06:50:08;;;;;;;2.83;2.45;;;;;;;;;;6208101;23;20009;-82
2023/07/08 06:52:36;;;;;;;2.75;2.38;;;;;;;;;;6206533;23;20316;-84
2023/07/08 06:55:03;;;;;;;2.63;2.33;;;;;;;;;;6208982;23;20023;-84
2023/07/08 06:57:29;;;;;;;4.68;2.90;;;;;;;;;;6209831;23;20009;-88
2023/07/08 06:59:55;;;;;;;3.03;2.50;;;;;;;;;;6207703;23;20445;-88
2023/07/08 07:02:21;;;;;;;3.60;2.35;;;;;;;;;;6209630;23;20016;-84
2023/07/08 07:04:47;;;;;;;3.55;2.55;;;;;;;;;;6210642;23;20027;-84
2023/07/08 07:07:13;;;;;;;2.67;2.47;;;;;;;;;;6216038;23;20012;-85
2023/07/08 07:09:39;;;;;;;3.65;2.85;;;;;;;;;;6213346;23;20016;-81
2023/07/08 07:12:06;;;;;;;3.92;2.83;;;;;;;;;;6212061;23;20020;-81
2023/07/08 07:14:32;;;;;;;3.35;2.17;;;;;;;;;;6214352;23;20385;-88
2023/07/08 07:16:59;;;;;;;3.22;2.50;;;;;;;;;;6209470;23;20031;-84
2023/07/08 07:19:25;;;;;;;3.33;2.83;;;;;;;;;;6208427;23;20031;-82
2023/07/08 07:21:51;;;;;;;4.25;2.78;;;;;;;;;;6209935;23;20016;-83
2023/07/08 07:24:17;;;;;;;2.85;2.60;;;;;;;;;;6207143;23;20338;-83
2023/07/08 07:26:44;;;;;;;3.00;2.70;;;;;;;;;;6206909;23;20031;-81
2023/07/08 07:29:10;;;;;;;3.95;2.47;;;;;;;;;;6179731;23;20016;-82
2023/07/08 07:31:36;;;;;;;4.57;2.60;;;;;;;;;;6207498;23;20012;-81
2023/07/08 07:34:02;;;;;;;2.55;2.30;;;;;;;;;;6206786;23;20116;-89
2023/07/08 07:36:29;;;;;;;2.78;2.50;;;;;;;;;;6208569;23;20014;-85
2023/07/08 07:38:55;;;;;;;3.88;3.38;;;;;;;;;;6208230;23;20012;-85
2023/07/08 07:41:21;;;;;;;3.13;2.55;;;;;;;;;;6207875;23;20067;-85
2023/07/08 07:43:47;;;;;;;5.40;2.70;;;;;;;;;;6209837;23;20016;-86
2023/07/08 07:46:14;;;;;;;3.97;2.50;;;;;;;;;;6208415;23;20062;-82
2023/07/08 07:48:40;;;;;;;2.80;2.60;;;;;;;;;;6209231;23;20017;-82
2023/07/08 07:51:10;;;;;;;2.83;2.40;;;;;;;;;;6208531;23;20013;-86
2023/07/08 07:53:36;;;;;;;2.80;2.38;;;;;;;;;;6209681;23;20019;-87
2023/07/08 07:56:03;;;;;;;2.80;2.53;;;;;;;;;;6208200;23;20509;-82
2023/07/08 07:58:29;;;;;;;4.85;2.95;;;;;;;;;;6207699;23;20016;-85
2023/07/08 08:00:55;;;;;;;2.72;2.47;;;;;;;;;;6205697;23;20365;-81
2023/07/08 08:03:22;;;;;;;3.08;2.30;;;;;;;;;;6207647;23;20472;-88
2023/07/08 08:05:48;;;;;;;2.83;2.55;;;;;;;;;;6208197;23;20092;-83
2023/07/08 08:08:14;;;;;;;3.70;2.60;;;;;;;;;;6209368;23;20016;-82
2023/07/08 08:10:40;;;;;;;2.72;2.50;;;;;;;;;;6208045;23;20104;-83
2023/07/08 08:13:07;;;;;;;3.70;2.90;;;;;;;;;;6203332;23;20024;-83
2023/07/08 08:15:33;;;;;;;3.30;2.53;;;;;;;;;;6181859;23;20032;-86
2023/07/08 08:17:59;;;;;;;2.70;2.50;;;;;;;;;;6206809;23;20032;-85
2023/07/08 08:20:26;;;;;;;2.85;2.60;;;;;;;;;;6207205;23;20021;-82
2023/07/08 08:22:52;;;;;;;2.97;2.47;;;;;;;;;;6208740;23;20013;-82
2023/07/08 08:25:19;;;;;;;2.60;2.25;;;;;;;;;;6206210;23;20016;-82
2023/07/08 08:27:45;;;;;;;2.80;2.42;;;;;;;;;;6206351;23;20027;-83
2023/07/08 08:30:12;;;;;;;3.95;2.72;;;;;;;;;;6206035;23;20017;-84
2023/07/08 08:32:38;;;;;;;4.03;2.58;;;;;;;;;;6206177;23;20012;-84
2023/07/08 08:35:04;;;;;;;4.30;2.88;;;;;;;;;;6206144;23;20107;-84
2023/07/08 08:37:31;;;;;;;3.95;2.60;;;;;;;;;;6206608;23;20032;-83
2023/07/08 08:39:57;;;;;;;3.13;2.72;;;;;;;;;;6205833;23;20017;-85
2023/07/08 08:42:26;;;;;;;3.67;2.50;;;;;;;;;;6179742;23;20970;-86
2023/07/08 08:44:53;;;;;;;3.10;2.70;;;;;;;;;;6206237;23;20134;-85
2023/07/08 08:47:42;;;;;;;4.72;3.10;;;;;;;;;;6204255;23;20054;-84
2023/07/08 08:50:11;;;;;;;2.80;2.60;;;;;;;;;;6190691;23;20134;-84
2023/07/08 08:52:39;;;;;;;2.78;2.55;;;;;;;;;;6208544;23;20017;-91
2023/07/08 08:55:09;;;;;;;3.20;2.78;;;;;;;;;;6181162;23;20023;-86
2023/07/08 08:57:38;;;;;;;3.28;2.72;;;;;;;;;;6181443;23;20020;-89
2023/07/08 09:00:04;;;;;;;4.25;2.50;;;;;;;;;;6207085;23;20020;-89
2023/07/08 09:02:42;;;;;;;2.97;2.70;;;;;;;;;;6208738;23;20070;-88
2023/07/08 09:05:10;;;;;;;3.25;2.95;;;;;;;;;;6206585;23;20070;-88
2023/07/08 09:07:45;;;;;;;4.30;3.28;;;;;;;;;;6211403;23;20091;-86
2023/07/08 09:10:30;;;;;;;3.10;2.83;;;;;;;;;;6207084;23;20106;-87
2023/07/08 09:12:57;;;;;;;3.00;2.65;;;;;;;;;;6205990;23;20016;-88
2023/07/08 09:15:26;;;;;;;3.65;2.67;;;;;;;;;;6209094;23;20017;-86
2023/07/08 09:17:56;;;;;;;2.60;2.38;;;;;;;;;;6210766;23;20793;-85
2023/07/08 09:20:25;;;;;;;2.75;2.55;;;;;;;;;;6211131;23;20016;-86
2023/07/08 09:22:54;;;;;;;3.80;2.63;;;;;;;;;;6208707;23;20504;-84
2023/07/08 09:25:27;;;;;;;5.15;2.65;;;;;;;;;;6209031;23;20024;-86
2023/07/08 09:27:53;;;;;;;2.72;2.53;;;;;;;;;;6182955;23;20074;-88
2023/07/08 09:30:21;;;;;;;4.97;2.88;;;;;;;;;;6206110;23;20008;-86
2023/07/08 09:32:47;;;;;;;2.85;2.38;;;;;;;;;;6209295;23;20017;-90
2023/07/08 09:35:22;;;;;;;2.63;2.42;;;;;;;;;;6206254;23;20095;-86
2023/07/08 09:37:49;;;;;;;3.20;2.90;;;;;;;;;;6209113;23;20513;-93
2023/07/08 09:40:19;;;;;;;3.38;3.08;;;;;;;;;;6209344;23;20023;-89
2023/07/08 09:42:49;;;;;;;10.25;3.28;;;;;;;;;;6183303;23;20024;-86
2023/07/08 09:45:16;;;;;;;3.28;2.97;;;;;;;;;;6207749;23;20019;-89
2023/07/08 09:47:45;;;;;;;2.88;2.67;;;;;;;;;;6211711;23;20004;-88
2023/07/08 09:50:22;;;;;;;3.00;2.70;;;;;;;;;;6209448;23;20012;-90
2023/07/08 09:52:49;;;;;;;3.88;3.03;;;;;;;;;;6182327;23;20020;-87
2023/07/08 09:55:15;;;;;;;4.35;2.92;;;;;;;;;;6209724;23;20017;-87
2023/07/08 09:57:41;;;;;;;3.60;2.83;;;;;;;;;;6213657;23;20016;-93
2023/07/08 10:00:11;;;;;;;3.67;2.97;;;;;;;;;;6211196;23;20067;-91
2023/07/08 10:02:55;;;;;;;3.83;2.50;;;;;;;;;;6213362;23;20401;-94
2023/07/08 10:05:26;;;;;;;3.95;2.80;;;;;;;;;;6216263;23;20061;-94
2023/07/08 10:07:54;;;;;;;4.15;2.80;;;;;;;;;;6213831;23;20012;-93
2023/07/08 10:10:23;;;;;;;3.17;2.65;;;;;;;;;;6217775;23;20300;-88
2023/07/08 10:12:57;;;;;;;3.28;2.42;;;;;;;;;;6228713;23;20017;-86
2023/07/08 10:15:27;;;;;;;6.53;2.90;;;;;;;;;;6227518;23;20036;-87
2023/07/08 10:17:54;;;;;;;4.70;2.63;;;;;;;;;;6224465;23;20020;-88
2023/07/08 10:20:21;;;;;;;5.85;2.95;;;;;;;;;;6209226;23;20012;-89
2023/07/08 10:22:46;;;;;;;2.70;2.50;;;;;;;;;;6210906;23;20020;-90
2023/07/08 10:25:32;;;;;;;3.00;2.70;;;;;;;;;;6212735;23;20019;-89
2023/07/08 10:28:03;;;;;;;6.35;2.95;;;;;;;;;;6213093;23;20306;-92
2023/07/08 10:30:34;;;;;;;5.82;3.03;;;;;;;;;;6209880;23;20320;-87
2023/07/08 10:33:00;;;;;;;3.55;2.92;;;;;;;;;;6208840;23;20020;-89
2023/07/08 10:35:37;;;;;;;4.53;3.28;;;;;;;;;;6211506;23;20024;-89
2023/07/08 10:38:23;;;;;;;4.28;2.75;;;;;;;;;;6211661;23;20044;-85
2023/07/08 10:40:50;;;;;;;3.17;2.90;;;;;;;;;;6211622;23;20048;-89
2023/07/08 10:43:23;;;;;;;4.97;2.90;;;;;;;;;;6208462;23;20284;-90
2023/07/08 10:45:49;;;;;;;4.35;3.03;;;;;;;;;;6209544;23;20338;-95
2023/07/08 10:48:14;;;;;;;3.85;2.92;;;;;;;;;;6210004;23;20021;-87
2023/07/08 10:50:53;;;;;;;3.00;2.70;;;;;;;;;;6210617;23;20047;-87
2023/07/08 10:53:30;;;;;;;3.70;2.80;;;;;;;;;;6211134;23;20048;-92
2023/07/08 10:55:58;;;;;;;4.32;2.95;;;;;;;;;;6208824;23;20020;-89
2023/07/08 10:58:37;;;;;;;3.42;3.00;;;;;;;;;;6209780;23;20044;-91
2023/07/08 11:01:23;;;;;;;4.97;3.05;;;;;;;;;;6209388;23;20087;-85
2023/07/08 11:03:52;;;;;;;3.72;2.50;;;;;;;;;;6210247;23;20324;-88
2023/07/08 11:06:35;;;;;;;3.08;2.47;;;;;;;;;;6212367;23;20009;-89
2023/07/08 11:09:03;;;;;;;2.80;2.60;;;;;;;;;;6213072;23;20067;-86
2023/07/08 11:11:43;;;;;;;3.97;2.97;;;;;;;;;;6212765;23;20013;-88
2023/07/08 11:14:15;;;;;;;3.50;2.88;;;;;;;;;;6211717;23;20016;-91
2023/07/08 11:16:45;;;;;;;4.18;3.15;;;;;;;;;;6212751;23;20008;-92
2023/07/08 11:19:24;;;;;;;4.03;2.90;;;;;;;;;;6212144;23;20095;-91
2023/07/08 11:21:52;;;;;;;3.60;2.97;;;;;;;;;;6214740;23;20023;-89
2023/07/08 11:24:21;;;;;;;4.10;2.95;;;;;;;;;;6213799;23;20521;-90
2023/07/08 11:26:50;;;;;;;4.63;3.33;;;;;;;;;;6187691;23;20091;-88
2023/07/08 11:29:19;;;;;;;4.13;3.15;;;;;;;;;;6213891;23;20012;-87
2023/07/08 11:31:46;;;;;;;3.65;2.70;;;;;;;;;;6208426;23;20012;-85
2023/07/08 11:34:12;;;;;;;3.55;2.90;;;;;;;;;;6214444;23;20017;-85
2023/07/08 11:36:39;;;;;;;4.45;2.85;;;;;;;;;;6215274;23;20020;-89
2023/07/08 11:39:25;;;;;;;2.55;2.35;;;;;;;;;;6212234;23;20083;-89
2023/07/08 11:41:52;;;;;;;3.38;2.63;;;;;;;;;;6213748;23;20374;-90
2023/07/08 11:44:18;;;;;;;5.07;3.13;;;;;;;;;;6209562;23;20012;-85
2023/07/08 11:46:54;;;;;;;4.50;2.88;;;;;;;;;;6210306;23;20071;-89
2023/07/08 11:49:20;;;;;;;;;;;;;;;;;;6210547;23;20016;-83
2023/07/08 11:51:47;;;;;;;3.17;2.88;;;;;;;;;;6211795;23;19912;-85
2023/07/08 11:54:19;;;;;;;2.85;2.58;;;;;;;;;;6209963;23;20027;-87
2023/07/08 11:56:58;;;;;;;2.95;2.67;;;;;;;;;;6210940;23;20013;-84
2023/07/08 11:59:25;;;;;;;3.33;3.03;;;;;;;;;;6211298;23;20091;-87
2023/07/08 12:01:51;;;;;;;2.85;2.53;;;;;;;;;;6211913;23;20016;-83
2023/07/08 12:04:32;;;;;;;4.50;3.40;;;;;;;;;;6209516;23;20330;-86
2023/07/08 12:07:19;;;;;;;4.50;2.92;;;;;;;;;;6211347;23;20334;-87
2023/07/08 12:10:05;;;;;;;3.50;3.17;;;;;;;;;;6212443;23;20279;-86
2023/07/08 12:12:32;;;;;;;3.08;2.88;;;;;;;;;;6213488;23;20012;-83
2023/07/08 12:15:06;;;;;;;2.92;2.63;;;;;;;;;;6211396;23;20017;-83
2023/07/08 12:17:32;;;;;;;4.60;2.33;;;;;;;;;;6210848;23;20335;-82
2023/07/08 12:20:01;;;;;;;3.95;3.20;;;;;;;;;;6211747;23;20017;-86
2023/07/08 12:22:27;;;;;;;4.45;3.25;;;;;;;;;;6212756;23;20013;-86
2023/07/08 12:24:55;;;;;;;4.10;3.00;;;;;;;;;;6210288;23;20096;-82
2023/07/08 12:27:21;;;;;;;3.47;3.05;;;;;;;;;;6212471;23;20009;-84
2023/07/08 12:29:49;;;;;;;4.18;3.30;;;;;;;;;;6212234;23;20012;-83
2023/07/08 12:32:15;;;;;;;4.32;3.22;;;;;;;;;;6211647;23;20088;-84
2023/07/08 12:34:41;;;;;;;4.68;3.45;;;;;;;;;;6212529;23;20095;-85
2023/07/08 12:37:11;;;;;;;4.80;3.53;;;;;;;;;;6211924;23;20048;-90
2023/07/08 12:39:37;;;;;;;3.20;2.90;;;;;;;;;;6212416;23;20017;-85
2023/07/08 12:42:09;;;;;;;3.60;3.20;;;;;;;;;;6212473;23;20306;-92
2023/07/08 12:44:37;;;;;;;4.88;3.30;;;;;;;;;;6210474;23;20410;-86
2023/07/08 12:47:03;;;;;;;4.38;3.50;;;;;;;;;;6213167;23;20442;-82
2023/07/08 12:49:29;;;;;;;4.15;3.40;;;;;;;;;;6212360;23;20013;-84
2023/07/08 12:51:56;;;;;;;4.65;3.90;;;;;;;;;;6212174;23;20012;-86
2023/07/08 12:54:22;;;;;;;5.43;3.50;;;;;;;;;;6209127;23;20023;-86
2023/07/08 12:56:48;;;;;;;5.95;3.67;;;;;;;;;;6213143;23;20067;-84
2023/07/08 12:59:17;;;;;;;4.75;3.47;;;;;;;;;;6211064;23;20027;-88
2023/07/08 13:01:46;;;;;;;3.72;3.33;;;;;;;;;;6210671;23;20020;-84
2023/07/08 13:04:13;;;;;;;5.47;4.32;;;;;;;;;;6208101;23;20023;-87
2023/07/08 13:06:41;;;;;;;5.75;3.85;;;;;;;;;;6210764;23;20022;-89
2023/07/08 13:09:26;;;;;;;5.03;4.00;;;;;;;;;;6210433;23;20059;-85
2023/07/08 13:11:55;;;;;;;4.20;3.38;;;;;;;;;;6219830;23;20047;-90
2023/07/08 13:14:22;;;;;;;5.30;3.72;;;;;;;;;;6220853;23;20076;-85
2023/07/08 13:16:49;;;;;;;3.50;3.08;;;;;;;;;;6219511;23;20342;-85
2023/07/08 13:19:15;;;;;;;4.35;3.70;;;;;;;;;;6222534;23;20020;-86
2023/07/08 13:21:41;;;;;;;5.97;3.95;;;;;;;;;;6216502;23;20024;-88
2023/07/08 13:24:10;;;;;;;3.97;3.53;;;;;;;;;;6211087;23;20021;-84
2023/07/08 13:26:36;;;;;;;4.20;3.72;;;;;;;;;;6214066;23;20016;-87
2023/07/08 13:29:05;;;;;;;4.95;4.05;;;;;;;;;;6224250;23;20295;-88
2023/07/08 13:31:35;;;;;;;4.60;3.90;;;;;;;;;;6222205;23;20076;-87
2023/07/08 13:34:01;;;;;;;;;;;;;;;;;;6211944;23;20023;-85
2023/07/08 13:36:34;;;;;;;4.55;3.72;;;;;;;;;;6211984;23;19912;-87
2023/07/08 13:39:03;;;;;;;5.45;4.47;;;;;;;;;;6215965;23;20505;-86
2023/07/08 13:41:29;;;;;;;6.00;3.55;;;;;;;;;;6210343;23;20012;-84
2023/07/08 13:43:55;;;;;;;5.03;4.07;;;;;;;;;;6207752;23;20013;-86
2023/07/08 13:46:31;;;;;;;4.53;3.75;;;;;;;;;;6209248;23;20021;-86
2023/07/08 13:49:00;;;;;;;6.43;4.38;;;;;;;;;;6211060;23;20119;-88
2023/07/08 13:51:29;;;;;;;6.50;3.88;;;;;;;;;;6212018;23;20013;-91
2023/07/08 13:54:09;;;;;;;5.55;4.25;;;;;;;;;;6211673;23;20382;-87
2023/07/08 13:56:36;;;;;;;4.75;3.55;;;;;;;;;;6212377;23;20366;-89
2023/07/08 13:59:04;;;;;;;6.18;4.57;;;;;;;;;;6211297;23;20054;-84
2023/07/08 14:01:31;;;;;;;7.20;3.97;;;;;;;;;;6211505;23;20096;-84
2023/07/08 14:03:57;;;;;;;6.75;4.30;;;;;;;;;;6209503;23;20037;-87
2023/07/08 14:06:25;;;;;;;5.55;4.45;;;;;;;;;;6209426;23;20113;-87
2023/07/08 14:08:55;;;;;;;6.60;4.15;;;;;;;;;;6210484;23;20016;-86
2023/07/08 14:11:21;;;;;;;4.63;3.90;;;;;;;;;;6210916;23;20092;-86
2023/07/08 14:13:47;;;;;;;5.68;3.97;;;;;;;;;;6211123;23;20021;-86
2023/07/08 14:16:24;;;;;;;5.55;4.03;;;;;;;;;;6210357;23;20334;-86
2023/07/08 14:18:50;;;;;;;4.43;3.72;;;;;;;;;;6208611;23;20032;-86
2023/07/08 14:21:17;;;;;;;4.97;4.00;;;;;;;;;;6183243;23;20027;-85
2023/07/08 14:23:43;;;;;;;5.47;3.75;;;;;;;;;;6208014;23;20358;-86
2023/07/08 14:26:11;;;;;;;6.45;3.88;;;;;;;;;;6211850;23;20380;-85
2023/07/08 14:28:37;;;;;;;5.45;3.72;;;;;;;;;;6210918;23;20311;-85
2023/07/08 14:31:03;;;;;;;6.50;3.85;;;;;;;;;;6203309;23;20540;-87
2023/07/08 14:33:29;;;;;;;6.50;4.20;;;;;;;;;;6207269;23;20378;-88
2023/07/08 14:35:55;;;;;;;7.05;3.95;;;;;;;;;;6205930;23;20017;-90
2023/07/08 14:38:21;;;;;;;5.20;4.50;;;;;;;;;;6206565;23;20091;-88
2023/07/08 14:40:47;;;;;;;5.18;4.15;;;;;;;;;;6206965;23;20051;-86
2023/07/08 14:43:25;;;;;;;5.50;4.28;;;;;;;;;;6207241;23;20639;-82
2023/07/08 14:45:53;;;;;;;5.03;4.00;;;;;;;;;;6206690;23;20013;-83
2023/07/08 14:48:19;;;;;;;4.90;4.03;;;;;;;;;;6206671;23;20075;-83